KBCT/BCT METAR and TAF weather

Enter ICAO airport designator
Station Type Date Time Source
KBCT METAR 2022/05/23 12:53 UTC NOAA

KBCT 231253Z 13011KT 10SM SCT025 29/23 A3013


Station Type Date Time Source
KBCT Decoded METAR 2022/05/23 12:53 UTC NOAA

Boca Raton, Boca Raton Airport, FL, United States (KBCT) 26-22-43N 080-06-28W
May 23, 2022 - 08:53 AM EDT / 2022.05.23 1253 UTC
Wind: from the SE (130 degrees) at 13 MPH (11 KT):0
Visibility: 10 mile(s):0
Sky conditions: partly cloudy
Temperature: 84 F (29 C)
Dew Point: 73 F (23 C)
Relative Humidity: 70%
Pressure (altimeter): 30.13 in. Hg (1020 hPa)
ob: KBCT 231253Z 13011KT 10SM SCT025 29/23 A3013
cycle: 13

Station Type Date Time Source
KBCT TAF 2020/02/03 18:20 UTC NOAA

TAF KBCT 031720Z 0318/0418 12005KT P6SM SKC
FM040000 VRB03KT P6SM SKC
FM041400 16011KT P6SM FEW030

Example: see airport list